Time;durP1;ratioP1;P1;durP2;ratioP2;P2;SDS_P1;SDS_P2;PMS_P1;PMS_P2;Temp;Humidity;BMP_temperature;BMP_pressure;BME280_temperature;BME280_humidity;BME280_pressure;Samples;Min_cycle;Max_cycle;Signal;HPM_P1;HPM_P2
2023/06/30 00:02:29;;;;;;;1.50;1.40;;;24.70;54.60;24.20;96161.00;;;;4999515;28;20209;-83
2023/06/30 00:04:57;;;;;;;2.07;1.50;;;24.70;54.70;24.20;96159.00;;;;5012098;28;20252;-84
2023/06/30 00:07:25;;;;;;;1.70;1.50;;;24.70;54.70;24.20;96156.00;;;;5002305;28;20202;-84
2023/06/30 00:09:53;;;;;;;1.50;1.40;;;24.60;54.70;24.20;96156.00;;;;5005735;28;20601;-84
2023/06/30 00:12:20;;;;;;;1.47;1.30;;;24.60;54.60;24.20;96154.00;;;;5012987;28;20211;-84
2023/06/30 00:14:49;;;;;;;1.43;1.33;;;24.60;54.70;24.20;96141.00;;;;5001266;28;20296;-84
2023/06/30 00:17:16;;;;;;;1.60;1.50;;;24.60;54.60;24.20;96139.00;;;;5008159;28;20209;-84
2023/06/30 00:19:43;;;;;;;2.63;1.30;;;24.60;54.50;24.10;96143.00;;;;5013218;28;20309;-84
2023/06/30 00:22:11;;;;;;;1.40;1.30;;;24.60;54.40;24.10;96145.00;;;;5015261;28;20197;-84
2023/06/30 00:24:38;;;;;;;1.53;1.30;;;24.60;54.50;24.10;96144.00;;;;5007341;28;20202;-84
2023/06/30 00:27:05;;;;;;;1.30;1.10;;;24.60;54.60;24.10;96135.00;;;;5010040;28;20220;-84
2023/06/30 00:29:33;;;;;;;1.57;1.30;;;24.60;54.70;24.10;96141.00;;;;5007590;28;20236;-84
2023/06/30 00:32:01;;;;;;;1.60;1.10;;;24.60;54.70;24.10;96134.00;;;;5011247;28;20232;-84
2023/06/30 00:34:28;;;;;;;1.30;1.20;;;24.60;54.80;24.10;96138.00;;;;5015308;28;20202;-84
2023/06/30 00:36:56;;;;;;;1.50;1.40;;;24.50;54.80;24.00;96141.00;;;;5009784;28;20216;-84
2023/06/30 00:39:23;;;;;;;1.20;1.10;;;24.50;54.80;24.00;96134.00;;;;5008320;28;20252;-84
2023/06/30 00:41:50;;;;;;;1.40;1.30;;;24.50;54.80;24.00;96130.00;;;;5012845;28;20194;-84
2023/06/30 00:44:18;;;;;;;1.63;1.50;;;24.50;54.80;24.00;96141.00;;;;5002498;28;20549;-84
2023/06/30 00:46:45;;;;;;;2.53;1.83;;;24.50;54.90;24.00;96143.00;;;;5006569;28;20194;-84
2023/06/30 00:49:14;;;;;;;1.57;1.13;;;24.50;55.20;24.00;96135.00;;;;5001602;28;20226;-84
2023/06/30 00:51:42;;;;;;;1.70;1.60;;;24.50;55.40;24.00;96126.00;;;;4996617;28;20279;-84
2023/06/30 00:54:10;;;;;;;1.60;1.50;;;24.50;55.80;24.00;96121.00;;;;5011682;28;20292;-84
2023/06/30 00:56:38;;;;;;;1.67;1.57;;;24.50;56.40;24.00;96122.00;;;;4999070;28;20613;-84
2023/06/30 00:59:05;;;;;;;1.50;1.40;;;24.40;56.50;23.90;96126.00;;;;4999368;28;20232;-84
2023/06/30 01:01:39;;;;;;;1.60;1.50;;;24.40;56.90;23.90;96119.00;;;;5000512;28;20207;-84
2023/06/30 01:04:18;;;;;;;1.60;1.50;;;24.40;57.60;23.80;96105.00;;;;5010118;28;20238;-84
2023/06/30 01:06:58;;;;;;;2.00;1.90;;;24.40;58.10;23.80;96104.00;;;;5009426;28;20203;-84
2023/06/30 01:09:35;;;;;;;1.60;1.50;;;24.30;58.40;23.70;96109.00;;;;5027364;28;20229;-84
2023/06/30 01:12:03;;;;;;;1.50;1.40;;;24.30;58.60;23.60;96102.00;;;;5014331;28;20271;-84
2023/06/30 01:14:33;;;;;;;1.43;1.33;;;24.20;58.70;23.60;96107.00;;;;5008540;28;20555;-84
2023/06/30 01:17:01;;;;;;;1.90;1.60;;;24.20;59.10;23.60;96099.00;;;;4988163;28;20204;-84
2023/06/30 01:19:39;;;;;;;2.00;1.57;;;24.20;59.40;23.50;96094.00;;;;5010207;28;20319;-84
2023/06/30 01:22:21;;;;;;;1.70;1.60;;;24.10;59.90;23.50;96086.00;;;;5015692;28;20680;-84
2023/06/30 01:24:53;;;;;;;1.53;1.43;;;24.10;60.00;23.50;96093.00;;;;5002370;28;20197;-84
2023/06/30 01:27:21;;;;;;;1.80;1.70;;;24.00;60.00;23.40;96089.00;;;;5002809;28;20233;-84
2023/06/30 01:29:50;;;;;;;1.87;1.77;;;24.00;60.20;23.40;96085.00;;;;5003054;28;20309;-84
2023/06/30 01:32:18;;;;;;;1.50;1.40;;;24.00;60.40;23.40;96084.00;;;;4999826;28;20286;-84
2023/06/30 01:34:47;;;;;;;1.57;1.47;;;24.00;60.70;23.40;96074.00;;;;4989673;28;20287;-84
2023/06/30 01:37:16;;;;;;;1.97;1.87;;;23.90;60.80;23.30;96071.00;;;;5012090;28;20629;-84
2023/06/30 01:39:43;;;;;;;1.80;1.70;;;23.90;61.00;23.30;96072.00;;;;5004991;28;20225;-84
2023/06/30 01:42:11;;;;;;;1.53;1.43;;;23.90;61.40;23.30;96069.00;;;;5002798;28;20292;-84
2023/06/30 01:44:41;;;;;;;1.73;1.63;;;23.80;61.60;23.30;96073.00;;;;5005635;28;20204;-84
2023/06/30 01:47:10;;;;;;;1.90;1.80;;;23.90;61.90;23.30;96065.00;;;;4998256;28;20197;-84
2023/06/30 01:49:38;;;;;;;2.20;2.10;;;23.80;62.00;23.30;96069.00;;;;5003909;28;20228;-84
2023/06/30 01:52:07;;;;;;;2.63;1.50;;;23.80;62.10;23.30;96063.00;;;;5004899;28;20291;-84
2023/06/30 01:54:35;;;;;;;2.17;1.97;;;23.80;62.00;23.30;96063.00;;;;5002500;28;20287;-84
2023/06/30 01:57:02;;;;;;;1.87;1.77;;;23.80;62.00;23.30;96066.00;;;;4998115;28;20205;-84
2023/06/30 01:59:29;;;;;;;2.03;1.80;;;23.80;62.10;23.30;96065.00;;;;5009992;28;20231;-84
2023/06/30 02:01:56;;;;;;;1.90;1.80;;;23.80;62.00;23.30;96071.00;;;;5000426;28;20287;-84
2023/06/30 02:04:23;;;;;;;1.93;1.83;;;23.80;61.90;23.30;96066.00;;;;5013647;28;20285;-84
2023/06/30 02:06:51;;;;;;;2.37;2.20;;;23.80;61.70;23.30;96062.00;;;;5001078;28;20304;-84
2023/06/30 02:09:19;;;;;;;2.03;1.90;;;23.80;61.60;23.30;96061.00;;;;5016189;28;20315;-84
2023/06/30 02:11:47;;;;;;;2.30;2.10;;;23.80;61.40;23.30;96055.00;;;;5011564;28;20206;-84
2023/06/30 02:14:14;;;;;;;2.10;2.00;;;23.80;61.50;23.30;96055.00;;;;5009914;28;20203;-84
2023/06/30 02:16:41;;;;;;;2.10;1.87;;;23.80;61.60;23.30;96050.00;;;;5008634;28;20258;-84
2023/06/30 02:19:09;;;;;;;1.63;1.53;;;23.80;62.50;23.30;96049.00;;;;5007868;28;20319;-84
2023/06/30 02:21:38;;;;;;;2.00;1.90;;;23.80;61.90;23.30;96055.00;;;;4996583;28;20205;-84
2023/06/30 02:24:06;;;;;;;1.90;1.80;;;23.80;62.20;23.30;96065.00;;;;5010797;28;20360;-84
2023/06/30 02:26:35;;;;;;;2.20;2.00;;;23.80;62.50;23.20;96068.00;;;;5016708;28;20218;-84
2023/06/30 02:29:02;;;;;;;2.10;2.00;;;23.80;62.50;23.20;96075.00;;;;5006498;28;20312;-84
2023/06/30 02:31:29;;;;;;;1.90;1.80;;;23.80;62.10;23.20;96076.00;;;;5010316;28;20201;-84
2023/06/30 02:33:56;;;;;;;2.83;2.03;;;23.80;61.90;23.20;96076.00;;;;5010274;28;20204;-84
2023/06/30 02:36:23;;;;;;;1.80;1.70;;;23.70;61.70;23.30;96073.00;;;;5006280;28;20201;-84
2023/06/30 02:38:50;;;;;;;2.30;2.10;;;23.70;61.70;23.30;96072.00;;;;5009498;28;20228;-84
2023/06/30 02:41:18;;;;;;;2.20;2.10;;;23.80;61.70;23.30;96071.00;;;;5011570;28;20606;-84
2023/06/30 02:43:46;;;;;;;1.83;1.73;;;23.70;61.60;23.30;96078.00;;;;5010135;28;20696;-84
2023/06/30 02:46:15;;;;;;;2.00;1.90;;;23.70;61.60;23.30;96063.00;;;;5012491;28;20204;-84
2023/06/30 02:48:42;;;;;;;2.27;1.90;;;23.70;61.50;23.30;96061.00;;;;5011933;28;20818;-84
2023/06/30 02:51:09;;;;;;;1.93;1.83;;;23.80;61.50;23.30;96062.00;;;;5006308;28;20648;-84
2023/06/30 02:53:37;;;;;;;2.07;1.97;;;23.80;61.60;23.40;96065.00;;;;5007713;28;20214;-84
2023/06/30 02:56:04;;;;;;;2.00;1.90;;;23.80;61.40;23.40;96057.00;;;;5011904;28;20202;-84
2023/06/30 02:58:36;;;;;;;1.60;1.50;;;23.80;61.40;23.40;96061.00;;;;5017188;28;20768;-84
2023/06/30 03:01:05;;;;;;;2.10;2.00;;;23.80;61.30;23.40;96050.00;;;;5003326;28;20651;-84
2023/06/30 03:03:32;;;;;;;2.37;1.83;;;23.80;61.20;23.40;96052.00;;;;4989850;28;20201;-84
2023/06/30 03:06:00;;;;;;;2.00;1.90;;;23.90;61.20;23.40;96059.00;;;;5012161;28;20204;-84
2023/06/30 03:08:27;;;;;;;2.70;1.73;;;23.90;61.20;23.40;96048.00;;;;5007620;28;20221;-84
2023/06/30 03:10:54;;;;;;;1.93;1.83;;;23.90;61.20;23.40;96057.00;;;;5012072;28;20825;-84
2023/06/30 03:13:22;;;;;;;1.90;1.80;;;23.90;61.40;23.40;96052.00;;;;5018906;28;20215;-84
2023/06/30 03:15:49;;;;;;;2.57;2.03;;;23.90;61.80;23.40;96058.00;;;;5004663;28;20193;-84
2023/06/30 03:18:18;;;;;;;2.53;2.33;;;23.90;61.90;23.40;96059.00;;;;5007408;28;20733;-85
2023/06/30 03:20:45;;;;;;;1.93;1.83;;;23.90;62.90;23.40;96067.00;;;;5009428;28;20664;-84
2023/06/30 03:23:14;;;;;;;2.20;1.93;;;23.90;62.00;23.40;96065.00;;;;4997474;28;20194;-84
2023/06/30 03:25:41;;;;;;;2.80;2.40;;;23.90;62.20;23.40;96070.00;;;;5017766;28;20267;-84
2023/06/30 03:28:08;;;;;;;2.17;1.97;;;23.90;62.30;23.40;96070.00;;;;5015586;28;20301;-84
2023/06/30 03:30:36;;;;;;;2.57;2.03;;;23.90;62.40;23.40;96073.00;;;;5008475;28;20206;-84
2023/06/30 03:33:03;;;;;;;2.20;2.10;;;23.80;62.60;23.40;96070.00;;;;5015031;28;20191;-84
2023/06/30 03:35:32;;;;;;;2.83;2.50;;;23.90;62.70;23.40;96064.00;;;;5016806;28;20240;-84
2023/06/30 03:37:59;;;;;;;1.87;1.77;;;23.90;62.90;23.40;96063.00;;;;5010614;28;20205;-84
2023/06/30 03:40:27;;;;;;;2.20;2.10;;;23.90;62.90;23.40;96063.00;;;;4987381;28;20662;-84
2023/06/30 03:42:55;;;;;;;2.20;2.10;;;23.90;63.00;23.40;96065.00;;;;5015775;28;20236;-84
2023/06/30 03:45:23;;;;;;;4.13;2.30;;;23.90;63.70;23.40;96064.00;;;;5013377;28;20210;-84
2023/06/30 03:47:50;;;;;;;2.00;1.90;;;23.90;63.00;23.40;96062.00;;;;5000545;28;20244;-84
2023/06/30 03:50:18;;;;;;;2.30;2.20;;;23.90;63.10;23.40;96061.00;;;;5007423;28;20228;-84
2023/06/30 03:52:46;;;;;;;2.27;2.17;;;23.90;63.20;23.40;96065.00;;;;5007641;28;20195;-84
2023/06/30 03:55:13;;;;;;;3.03;2.83;;;23.90;63.20;23.40;96068.00;;;;5011518;28;20296;-84
2023/06/30 03:57:41;;;;;;;2.63;2.43;;;23.90;63.00;23.40;96064.00;;;;5005950;28;20217;-84
2023/06/30 04:00:11;;;;;;;4.37;2.87;;;23.90;62.90;23.40;96063.00;;;;5011891;28;20735;-84
2023/06/30 04:02:39;;;;;;;2.30;2.20;;;23.90;62.90;23.40;96069.00;;;;5003890;28;20270;-84
2023/06/30 04:05:06;;;;;;;2.33;2.23;;;23.90;63.90;23.40;96075.00;;;;4998354;28;20249;-84
2023/06/30 04:07:33;;;;;;;2.70;2.53;;;23.90;63.40;23.30;96075.00;;;;5005424;28;20285;-84
2023/06/30 04:10:02;;;;;;;2.80;2.50;;;23.90;63.50;23.30;96076.00;;;;5004581;28;20268;-84
2023/06/30 04:12:29;;;;;;;2.60;2.40;;;23.90;63.60;23.30;96083.00;;;;5012026;28;20284;-85
2023/06/30 04:14:57;;;;;;;2.80;2.40;;;23.80;63.90;23.30;96084.00;;;;5001286;28;20203;-84
2023/06/30 04:17:24;;;;;;;2.70;2.50;;;23.80;64.20;23.30;96096.00;;;;5001878;28;20588;-84
2023/06/30 04:19:51;;;;;;;2.67;2.47;;;23.80;64.50;23.30;96095.00;;;;5012667;28;20237;-85
2023/06/30 04:22:18;;;;;;;3.33;2.80;;;23.80;64.80;23.20;96090.00;;;;5002612;28;20214;-85
2023/06/30 04:24:45;;;;;;;3.17;2.90;;;23.80;64.50;23.20;96078.00;;;;5000493;28;20583;-84
2023/06/30 04:27:14;;;;;;;3.17;2.70;;;23.70;64.60;23.20;96068.00;;;;5008441;28;20247;-84
2023/06/30 04:29:41;;;;;;;3.10;2.87;;;23.70;65.10;23.20;96059.00;;;;5007405;28;20234;-84
2023/06/30 04:32:08;;;;;;;3.03;2.73;;;23.70;65.20;23.20;96058.00;;;;5001300;28;20232;-84
2023/06/30 04:34:35;;;;;;;2.70;2.50;;;23.70;65.40;23.20;96052.00;;;;5005280;28;20662;-84
2023/06/30 04:37:03;;;;;;;3.03;2.83;;;23.70;65.50;23.20;96042.00;;;;4983554;28;20198;-84
2023/06/30 04:39:30;;;;;;;3.13;2.93;;;23.70;65.60;23.20;96036.00;;;;5004296;28;20223;-82
2023/06/30 04:41:59;;;;;;;3.00;2.77;;;23.70;65.60;23.20;96032.00;;;;5007628;28;20335;-83
2023/06/30 04:44:29;;;;;;;2.80;2.60;;;23.70;65.70;23.20;96028.00;;;;5004746;28;20724;-83
2023/06/30 04:46:56;;;;;;;3.00;2.80;;;23.70;65.70;23.20;96036.00;;;;4995483;28;20291;-83
2023/06/30 04:49:24;;;;;;;2.73;2.53;;;23.70;65.80;23.20;96039.00;;;;5003864;28;20229;-83
2023/06/30 04:51:51;;;;;;;3.17;2.90;;;23.60;66.20;23.20;96055.00;;;;5005112;28;20205;-84
2023/06/30 04:54:19;;;;;;;3.03;2.83;;;23.60;66.30;23.20;96058.00;;;;5005191;28;20686;-84
2023/06/30 04:56:46;;;;;;;3.43;3.13;;;23.60;66.30;23.20;96062.00;;;;5003551;28;20279;-83
2023/06/30 04:59:13;;;;;;;3.57;3.13;;;23.60;66.40;23.20;96057.00;;;;5013296;28;20225;-84
2023/06/30 05:01:42;;;;;;;3.70;3.40;;;23.70;66.50;23.10;96044.00;;;;5005546;28;20196;-84
2023/06/30 05:04:09;;;;;;;3.37;3.17;;;23.60;66.40;23.10;96049.00;;;;4992359;28;20571;-83
2023/06/30 05:06:36;;;;;;;3.40;3.20;;;23.60;66.70;23.10;96050.00;;;;5004845;28;20294;-83
2023/06/30 05:09:04;;;;;;;3.30;3.10;;;23.60;66.90;23.10;96046.00;;;;5007247;28;20223;-83
2023/06/30 05:11:31;;;;;;;5.13;3.47;;;23.60;67.20;23.10;96047.00;;;;5003046;28;20234;-84
2023/06/30 05:14:00;;;;;;;3.70;3.40;;;23.60;67.40;23.10;96048.00;;;;5007200;28;20202;-84
2023/06/30 05:16:28;;;;;;;3.73;3.43;;;23.60;67.70;23.10;96051.00;;;;4993287;28;20202;-82
2023/06/30 05:18:56;;;;;;;3.83;3.53;;;23.60;68.00;23.10;96052.00;;;;5002592;28;20225;-82
2023/06/30 05:21:24;;;;;;;5.40;4.00;;;23.60;68.20;23.10;96054.00;;;;5006405;28;20218;-82
2023/06/30 05:23:52;;;;;;;3.97;3.67;;;23.60;68.30;23.10;96046.00;;;;5003776;28;20191;-81
2023/06/30 05:26:19;;;;;;;4.20;3.73;;;23.60;68.40;23.20;96046.00;;;;5000766;28;20715;-81
2023/06/30 05:28:47;;;;;;;4.07;3.43;;;23.60;68.70;23.20;96046.00;;;;5005487;28;20219;-83
2023/06/30 05:31:14;;;;;;;4.03;3.67;;;23.60;69.00;23.20;96047.00;;;;5005914;28;20209;-82
2023/06/30 05:33:42;;;;;;;4.30;3.63;;;23.70;69.10;23.30;96055.00;;;;5011568;28;20202;-82
2023/06/30 05:36:10;;;;;;;3.90;3.60;;;23.70;69.10;23.30;96050.00;;;;5017358;28;20296;-83
2023/06/30 05:38:37;;;;;;;4.13;3.83;;;23.70;69.30;23.30;96043.00;;;;5014671;28;20217;-82
2023/06/30 05:41:05;;;;;;;4.33;3.93;;;23.80;69.40;23.30;96046.00;;;;5005188;28;20263;-83
2023/06/30 05:43:32;;;;;;;4.20;3.80;;;23.80;69.60;23.30;96043.00;;;;5008221;28;20745;-83
2023/06/30 05:45:59;;;;;;;4.40;4.00;;;23.80;69.70;23.40;96036.00;;;;5014062;28;20211;-82
2023/06/30 05:48:26;;;;;;;3.90;3.67;;;23.80;69.80;23.40;96041.00;;;;5009402;28;20236;-83
2023/06/30 05:50:54;;;;;;;3.70;3.40;;;23.90;70.20;23.40;96045.00;;;;5008134;28;20667;-82
2023/06/30 05:53:23;;;;;;;4.00;3.70;;;23.90;70.10;23.40;96040.00;;;;5007308;28;20209;-81
2023/06/30 05:55:50;;;;;;;5.07;4.23;;;23.90;70.50;23.40;96041.00;;;;5012054;28;20206;-81
2023/06/30 05:58:17;;;;;;;4.00;3.67;;;23.90;70.40;23.40;96042.00;;;;5007794;28;20225;-81
2023/06/30 06:00:44;;;;;;;4.00;3.70;;;23.90;70.20;23.40;96043.00;;;;5009141;28;20227;-81
2023/06/30 06:03:11;;;;;;;3.93;3.63;;;23.90;70.30;23.40;96047.00;;;;5005629;28;20588;-81
2023/06/30 06:05:38;;;;;;;4.50;3.73;;;23.90;70.70;23.40;96054.00;;;;5002379;28;20231;-81
2023/06/30 06:08:06;;;;;;;4.50;4.10;;;23.90;71.00;23.40;96059.00;;;;5008248;28;20200;-81
2023/06/30 06:10:35;;;;;;;4.40;4.00;;;23.90;71.30;23.40;96060.00;;;;5003039;28;20201;-83
2023/06/30 06:13:02;;;;;;;4.40;4.10;;;23.90;71.60;23.40;96062.00;;;;5009801;28;20288;-81
2023/06/30 06:15:29;;;;;;;4.40;4.00;;;23.90;71.70;23.40;96061.00;;;;5007347;28;20288;-81
2023/06/30 06:17:57;;;;;;;4.20;3.80;;;23.90;71.70;23.40;96063.00;;;;5020286;28;20208;-84
2023/06/30 06:20:24;;;;;;;4.23;3.93;;;23.90;71.70;23.40;96060.00;;;;5005537;28;20754;-82
2023/06/30 06:22:52;;;;;;;4.13;3.73;;;23.90;71.90;23.40;96064.00;;;;4995560;28;20650;-82
2023/06/30 06:25:19;;;;;;;4.43;4.03;;;23.90;72.10;23.40;96060.00;;;;5011629;28;20205;-81
2023/06/30 06:27:48;;;;;;;4.23;3.83;;;23.90;72.00;23.40;96063.00;;;;5006330;28;20567;-82
2023/06/30 06:30:16;;;;;;;4.57;4.13;;;23.90;72.10;23.40;96061.00;;;;5013713;28;20240;-82
2023/06/30 06:32:43;;;;;;;4.40;4.07;;;23.90;72.00;23.40;96061.00;;;;5015225;28;20205;-82
2023/06/30 06:35:11;;;;;;;4.50;4.20;;;23.90;72.00;23.50;96067.00;;;;5015869;28;20724;-82
2023/06/30 06:37:38;;;;;;;4.47;4.13;;;24.00;72.20;23.50;96073.00;;;;5015427;28;20239;-81
2023/06/30 06:40:11;;;;;;;4.67;4.27;;;24.00;72.20;23.50;96069.00;;;;5016193;28;20788;-82
2023/06/30 06:42:38;;;;;;;4.33;3.93;;;24.00;72.30;23.50;96071.00;;;;5019584;28;20205;-82
2023/06/30 06:45:08;;;;;;;4.93;4.53;;;24.00;72.00;23.50;96077.00;;;;5006706;28;20202;-82
2023/06/30 06:48:21;;;;;;;5.67;5.17;;;24.00;71.40;23.50;96072.00;;;;5017203;28;20235;-81
2023/06/30 06:50:49;;;;;;;5.53;5.13;;;24.00;71.00;23.50;96071.00;;;;4998895;28;20190;-82
2023/06/30 06:53:20;;;;;;;5.10;4.70;;;24.00;71.40;23.50;96073.00;;;;4998525;28;20198;-82
2023/06/30 06:55:49;;;;;;;4.70;4.23;;;24.00;71.70;23.60;96075.00;;;;5009156;28;20213;-82
2023/06/30 06:58:17;;;;;;;4.63;4.23;;;24.00;71.80;23.60;96078.00;;;;5012320;28;20240;-82
2023/06/30 07:00:49;;;;;;;5.23;4.73;;;24.10;72.00;23.60;96075.00;;;;5005182;28;20288;-82
2023/06/30 07:03:17;;;;;;;4.87;4.57;;;24.10;71.70;23.60;96078.00;;;;5009623;28;20207;-82
2023/06/30 07:05:45;;;;;;;5.17;4.67;;;24.10;71.50;23.60;96070.00;;;;5005682;28;20225;-82
2023/06/30 07:08:14;;;;;;;5.07;4.53;;;24.10;71.40;23.70;96072.00;;;;5009808;28;20236;-81
2023/06/30 07:10:42;;;;;;;5.30;4.80;;;24.10;71.40;23.70;96066.00;;;;5010322;28;20194;-82
2023/06/30 07:13:10;;;;;;;5.07;4.57;;;24.20;71.60;23.70;96061.00;;;;5013726;28;20209;-82
2023/06/30 07:15:37;;;;;;;6.93;4.43;;;24.20;71.70;23.70;96069.00;;;;5010590;28;20287;-82
2023/06/30 07:18:06;;;;;;;5.30;4.20;;;24.20;71.80;23.80;96067.00;;;;5016562;28;20205;-83
2023/06/30 07:20:34;;;;;;;4.73;4.33;;;24.30;72.00;23.80;96067.00;;;;5016647;28;20221;-84
2023/06/30 07:23:01;;;;;;;5.10;4.70;;;24.30;72.00;23.80;96064.00;;;;5005637;28;20202;-82
2023/06/30 07:25:28;;;;;;;4.87;4.47;;;24.30;72.20;23.80;96057.00;;;;5003235;28;20304;-84
2023/06/30 07:27:57;;;;;;;4.30;3.93;;;24.30;73.20;23.90;96058.00;;;;5006852;28;20655;-81
2023/06/30 07:30:26;;;;;;;4.93;4.53;;;24.30;72.60;23.90;96055.00;;;;5002455;28;20301;-80
2023/06/30 07:32:54;;;;;;;5.17;4.77;;;24.40;72.70;24.00;96065.00;;;;5007436;28;20858;-81
2023/06/30 07:35:24;;;;;;;4.47;4.17;;;24.40;72.80;24.00;96063.00;;;;5008333;28;20201;-81
2023/06/30 07:37:52;;;;;;;7.63;4.93;;;24.40;72.90;24.00;96062.00;;;;4983498;28;20201;-81
2023/06/30 07:40:20;;;;;;;4.93;4.43;;;24.40;72.70;24.00;96072.00;;;;4995407;28;20204;-81
2023/06/30 07:42:47;;;;;;;5.20;4.80;;;24.50;72.60;24.10;96061.00;;;;5003193;28;20285;-81
2023/06/30 07:45:17;;;;;;;4.93;4.33;;;24.50;72.40;24.10;96063.00;;;;5001829;28;20205;-82
2023/06/30 07:47:47;;;;;;;5.17;4.77;;;24.50;72.20;24.10;96072.00;;;;5017231;28;20208;-81
2023/06/30 07:50:16;;;;;;;5.80;5.30;;;24.60;72.30;24.10;96074.00;;;;5007718;28;20262;-81
2023/06/30 07:52:47;;;;;;;5.00;4.60;;;24.50;72.00;24.10;96074.00;;;;5000474;28;20301;-81
2023/06/30 07:55:17;;;;;;;5.13;4.73;;;24.50;72.00;24.10;96072.00;;;;5008212;28;20202;-82
2023/06/30 07:57:45;;;;;;;5.10;4.70;;;24.50;72.40;24.10;96067.00;;;;5005018;28;20252;-82
2023/06/30 08:00:18;;;;;;;4.93;4.53;;;24.50;72.50;24.00;96073.00;;;;5017940;28;20695;-82
2023/06/30 08:02:46;;;;;;;5.70;5.20;;;24.50;72.50;24.00;96070.00;;;;5019324;28;20198;-81
2023/06/30 08:05:13;;;;;;;5.73;5.33;;;24.60;72.80;24.10;96071.00;;;;5015321;28;20204;-82
2023/06/30 08:07:40;;;;;;;6.13;5.53;;;24.60;73.10;24.00;96074.00;;;;5013878;28;20293;-82
2023/06/30 08:10:10;;;;;;;6.03;5.50;;;24.50;73.10;24.00;96070.00;;;;5010793;28;20308;-82
2023/06/30 08:12:38;;;;;;;5.97;5.47;;;24.60;73.40;24.00;96078.00;;;;5005604;28;20194;-82
2023/06/30 08:15:06;;;;;;;6.03;5.53;;;24.50;73.50;24.00;96081.00;;;;5000945;28;20543;-82
2023/06/30 08:17:33;;;;;;;6.23;5.60;;;24.60;73.80;24.00;96085.00;;;;5002982;28;20296;-82
2023/06/30 08:20:00;;;;;;;6.40;5.67;;;24.60;73.90;24.00;96092.00;;;;5010126;28;20222;-82
2023/06/30 08:22:27;;;;;;;6.13;5.23;;;24.50;74.10;24.00;96093.00;;;;4998068;28;20642;-81
2023/06/30 08:24:55;;;;;;;6.20;5.67;;;24.60;74.40;24.10;96102.00;;;;5003333;28;20205;-81
2023/06/30 08:27:24;;;;;;;7.17;6.30;;;24.50;74.50;24.10;96101.00;;;;5004524;28;20729;-82
2023/06/30 08:29:51;;;;;;;6.07;5.57;;;24.60;74.60;24.10;96105.00;;;;4994639;28;20230;-81
2023/06/30 08:32:18;;;;;;;6.57;5.93;;;24.60;74.30;24.10;96110.00;;;;5007033;28;20210;-82
2023/06/30 08:34:45;;;;;;;6.40;5.80;;;24.50;74.20;24.10;96109.00;;;;5009363;28;20198;-81
2023/06/30 08:37:13;;;;;;;7.47;6.60;;;24.50;73.80;24.10;96113.00;;;;5001248;28;20229;-81
2023/06/30 08:39:40;;;;;;;7.23;6.53;;;24.60;73.60;24.00;96108.00;;;;5012229;28;20260;-82
2023/06/30 08:42:10;;;;;;;6.87;6.17;;;24.50;73.50;24.00;96106.00;;;;5020448;28;20221;-82
2023/06/30 08:44:43;;;;;;;7.27;6.57;;;24.50;73.60;24.00;96109.00;;;;5009858;28;20205;-82
2023/06/30 08:47:15;;;;;;;6.63;5.93;;;24.50;73.80;24.00;96110.00;;;;5021740;28;20264;-82
2023/06/30 08:49:42;;;;;;;7.03;6.13;;;24.40;73.70;24.00;96108.00;;;;5015180;28;20214;-82
2023/06/30 08:52:11;;;;;;;7.33;6.63;;;24.50;73.80;24.00;96110.00;;;;5015682;28;20204;-82
2023/06/30 08:54:38;;;;;;;7.57;6.87;;;24.50;73.80;24.00;96100.00;;;;5016914;28;20650;-82
2023/06/30 08:57:07;;;;;;;7.63;6.93;;;24.50;73.90;24.00;96103.00;;;;5015920;28;20284;-81
2023/06/30 08:59:34;;;;;;;7.33;6.60;;;24.50;74.10;24.00;96107.00;;;;5021183;28;20226;-82
2023/06/30 09:02:03;;;;;;;7.40;6.77;;;24.50;74.20;24.10;96108.00;;;;5005255;28;20989;-83
2023/06/30 09:04:31;;;;;;;7.83;7.03;;;24.50;74.20;24.10;96107.00;;;;5011425;28;20208;-82
2023/06/30 09:07:02;;;;;;;7.33;6.53;;;24.50;74.40;24.20;96105.00;;;;5009775;28;20202;-81
2023/06/30 09:09:38;;;;;;;7.87;6.63;;;24.60;74.50;24.20;96108.00;;;;5010138;28;20611;-81
2023/06/30 09:12:08;;;;;;;7.83;7.03;;;24.60;74.60;24.20;96110.00;;;;5011979;28;20211;-82
2023/06/30 09:14:38;;;;;;;8.50;6.93;;;24.60;74.50;24.30;96111.00;;;;5010877;28;20206;-83
2023/06/30 09:17:09;;;;;;;7.20;6.50;;;24.70;74.70;24.30;96103.00;;;;4998876;28;20203;-84
2023/06/30 09:19:36;;;;;;;7.93;7.20;;;24.70;74.80;24.40;96106.00;;;;5010108;28;20585;-85
2023/06/30 09:22:08;;;;;;;7.63;6.90;;;24.70;74.80;24.40;96104.00;;;;5007938;28;20852;-85
2023/06/30 09:24:35;;;;;;;7.63;6.87;;;24.80;74.90;24.40;96106.00;;;;5007390;28;20281;-83
2023/06/30 09:27:03;;;;;;;9.03;7.47;;;24.80;74.80;24.50;96111.00;;;;5008508;28;20208;-83
2023/06/30 09:29:34;;;;;;;8.10;7.07;;;24.90;74.50;24.50;96110.00;;;;5009668;28;20308;-84
2023/06/30 09:32:02;;;;;;;7.77;6.97;;;24.90;74.30;24.50;96104.00;;;;5018072;28;20632;-83
2023/06/30 09:34:31;;;;;;;8.47;7.67;;;24.90;74.20;24.50;96108.00;;;;5016747;28;20277;-83
2023/06/30 09:36:58;;;;;;;9.60;7.73;;;24.90;73.90;24.60;96105.00;;;;5012868;28;20221;-83
2023/06/30 09:39:25;;;;;;;8.37;7.47;;;25.00;74.10;24.60;96101.00;;;;5013804;28;20217;-81
2023/06/30 09:41:53;;;;;;;7.90;6.93;;;25.00;74.10;24.60;96101.00;;;;5008554;28;20227;-81
2023/06/30 09:44:21;;;;;;;8.73;7.83;;;25.00;74.20;24.70;96101.00;;;;5011684;28;20195;-81
2023/06/30 09:46:50;;;;;;;8.23;7.07;;;25.10;74.20;24.70;96100.00;;;;5012583;28;20663;-81
2023/06/30 09:49:25;;;;;;;8.07;7.13;;;25.10;73.90;24.80;96100.00;;;;5010001;28;20588;-81
2023/06/30 09:51:57;;;;;;;8.27;7.17;;;25.20;72.90;24.80;96103.00;;;;5013303;28;20233;-81
2023/06/30 09:54:25;;;;;;;8.53;7.63;;;25.20;72.60;24.80;96107.00;;;;5008000;28;20659;-82
2023/06/30 09:57:05;;;;;;;8.90;7.57;;;25.20;72.40;24.90;96102.00;;;;5010131;28;20566;-82
2023/06/30 09:59:32;;;;;;;8.90;8.00;;;25.20;72.60;24.90;96101.00;;;;4999730;28;20226;-82
2023/06/30 10:02:01;;;;;;;8.37;7.40;;;25.30;73.40;25.00;96102.00;;;;5008926;28;22071;-81
2023/06/30 10:04:30;;;;;;;9.40;7.47;;;25.40;72.60;25.00;96097.00;;;;5015177;28;20194;-84
2023/06/30 10:07:03;;;;;;;7.77;6.93;;;25.40;72.70;25.00;96091.00;;;;5000787;28;20261;-83
2023/06/30 10:09:34;;;;;;;7.83;6.73;;;25.40;72.50;25.10;96097.00;;;;4978118;28;20222;-83
2023/06/30 10:12:03;;;;;;;8.20;7.10;;;25.50;72.00;25.10;96095.00;;;;5008372;28;20206;-82
2023/06/30 10:14:32;;;;;;;8.10;6.93;;;25.50;71.60;25.20;96095.00;;;;5006911;28;20624;-82
2023/06/30 10:17:04;;;;;;;8.83;7.10;;;25.60;71.40;25.20;96092.00;;;;5003653;28;22015;-84
2023/06/30 10:19:34;;;;;;;7.97;6.70;;;25.60;70.70;25.20;96088.00;;;;5012872;28;20317;-84
2023/06/30 10:22:03;;;;;;;7.43;6.73;;;25.60;71.20;25.30;96098.00;;;;4988363;28;21376;-84
2023/06/30 10:24:37;;;;;;;7.20;6.50;;;25.70;70.40;25.30;96095.00;;;;5004631;28;20203;-84
2023/06/30 10:27:07;;;;;;;6.27;5.67;;;25.70;70.80;25.30;96090.00;;;;5007128;28;20822;-83
2023/06/30 10:29:36;;;;;;;6.40;5.80;;;25.80;70.30;25.40;96099.00;;;;5009530;28;20702;-83
2023/06/30 10:32:04;;;;;;;6.97;6.27;;;25.80;70.00;25.40;96094.00;;;;5012579;28;20285;-84
2023/06/30 10:34:34;;;;;;;6.50;5.90;;;25.80;69.80;25.40;96099.00;;;;5011203;28;20233;-83
2023/06/30 10:37:06;;;;;;;6.10;5.43;;;25.80;69.40;25.40;96092.00;;;;5007192;28;20210;-84
2023/06/30 10:39:35;;;;;;;5.40;4.90;;;25.80;69.80;25.50;96095.00;;;;5003192;28;20595;-84
2023/06/30 10:42:07;;;;;;;5.63;5.03;;;25.90;69.80;25.50;96094.00;;;;5009031;28;20226;-82
2023/06/30 10:44:39;;;;;;;5.20;4.70;;;25.90;69.80;25.60;96110.00;;;;5009896;28;20230;-85
2023/06/30 10:47:07;;;;;;;5.67;4.90;;;26.00;69.40;25.60;96106.00;;;;5011633;28;20659;-82
2023/06/30 10:49:36;;;;;;;5.93;5.33;;;26.00;70.20;25.70;96105.00;;;;5005639;28;20305;-82
2023/06/30 10:52:11;;;;;;;6.13;5.53;;;26.00;68.20;25.70;96095.00;;;;5007693;28;20208;-86
2023/06/30 10:54:46;;;;;;;5.83;5.23;;;26.10;67.30;25.70;96085.00;;;;5013520;28;20258;-83
2023/06/30 10:57:19;;;;;;;5.67;5.10;;;26.20;67.40;25.80;96085.00;;;;5000616;28;20654;-83
2023/06/30 10:59:48;;;;;;;5.03;4.63;;;26.20;67.50;25.90;96089.00;;;;4997380;28;20210;-82
2023/06/30 11:02:23;;;;;;;7.80;6.30;;;26.20;67.90;26.00;96084.00;;;;5007397;28;20229;-83